Time;durP1;ratioP1;P1;durP2;ratioP2;P2;SDS_P1;SDS_P2;PMS_P1;PMS_P2;Temp;Humidity;BMP_temperature;BMP_pressure;BME280_temperature;BME280_humidity;BME280_pressure;Samples;Min_cycle;Max_cycle;Signal;HPM_P1;HPM_P2
2023/08/27 00:00:11;;;;;;;6.70;4.30;;;;;;;18.00;100.00;100121.98;105575;1251;69070;-64
2023/08/27 00:03:01;;;;;;;6.00;4.00;;;;;;;18.00;100.00;100118.42;105581;1253;69172;-64
2023/08/27 00:05:29;;;;;;;7.40;4.30;;;;;;;17.96;100.00;100115.71;105594;1256;74802;-64
2023/08/27 00:07:56;;;;;;;7.70;4.30;;;;;;;17.95;100.00;100115.09;105571;1254;82569;-64
2023/08/27 00:10:22;;;;;;;7.00;4.40;;;;;;;17.96;100.00;100118.95;105620;1256;74043;-64
2023/08/27 00:12:49;;;;;;;9.80;4.30;;;;;;;17.94;100.00;100118.36;105596;1257;69795;-64
2023/08/27 00:15:16;;;;;;;7.90;4.30;;;;;;;17.92;100.00;100119.04;105585;1255;69173;-64
2023/08/27 00:17:43;;;;;;;6.60;4.30;;;;;;;17.90;100.00;100113.66;105581;1254;73763;-64
2023/08/27 00:20:11;;;;;;;10.40;4.70;;;;;;;17.90;100.00;100110.15;105714;1257;82318;-64
2023/08/27 00:22:39;;;;;;;6.10;4.50;;;;;;;17.91;100.00;100110.94;105575;1256;73921;-65
2023/08/27 00:25:07;;;;;;;11.70;4.30;;;;;;;17.93;100.00;100112.77;105581;1255;69171;-65
2023/08/27 00:27:34;;;;;;;9.90;5.20;;;;;;;17.92;100.00;100109.11;105592;1255;69119;-63
2023/08/27 00:30:05;;;;;;;9.10;4.70;;;;;;;17.91;100.00;100118.02;105580;1254;74907;-65
2023/08/27 00:32:33;;;;;;;6.20;4.60;;;;;;;17.91;100.00;100132.69;105597;1255;83659;-65
2023/08/27 00:35:03;;;;;;;6.30;4.40;;;;;;;17.91;100.00;100140.80;105474;1259;74029;-65
2023/08/27 00:37:30;;;;;;;8.80;4.60;;;;;;;17.87;100.00;100148.06;105475;1256;69176;-65
2023/08/27 00:39:57;;;;;;;9.00;4.50;;;;;;;17.81;100.00;100151.45;105482;1254;69192;-65
2023/08/27 00:42:24;;;;;;;6.10;4.40;;;;;;;17.78;100.00;100144.04;105563;1256;73781;-65
2023/08/27 00:44:51;;;;;;;8.80;4.40;;;;;;;17.79;100.00;100137.64;105592;1256;83156;-65
2023/08/27 00:47:18;;;;;;;7.40;4.70;;;;;;;17.79;100.00;100135.70;105569;1254;72561;-65
2023/08/27 00:49:45;;;;;;;7.40;4.30;;;;;;;17.79;100.00;100139.02;105583;1257;69234;-65
2023/08/27 00:52:16;;;;;;;6.50;4.90;;;;;;;17.79;100.00;100143.48;105643;1256;69181;-65
2023/08/27 00:54:44;;;;;;;6.30;4.50;;;;;;;17.80;100.00;100137.21;105527;1257;75036;-65
2023/08/27 00:57:12;;;;;;;9.00;4.70;;;;;;;17.80;100.00;100132.64;105620;1255;82406;-65
2023/08/27 00:59:38;;;;;;;10.80;4.60;;;;;;;17.81;100.00;100135.55;105414;1259;72612;-65
2023/08/27 01:02:05;;;;;;;10.80;4.50;;;;;;;17.81;100.00;100141.34;105462;1257;69147;-65
2023/08/27 01:04:34;;;;;;;7.10;4.70;;;;;;;17.82;100.00;100143.79;105533;1254;69119;-65
2023/08/27 01:07:07;;;;;;;6.10;4.20;;;;;;;17.83;100.00;100140.47;105504;1256;75250;-65
2023/08/27 01:09:44;;;;;;;7.50;4.30;;;;;;;17.86;100.00;100137.52;105554;1257;83036;-65
2023/08/27 01:12:15;;;;;;;10.20;4.20;;;;;;;17.85;100.00;100145.49;105558;1256;72538;-66
2023/08/27 01:14:43;;;;;;;6.90;4.70;;;;;;;17.84;100.00;100154.56;105476;1260;69179;-66
2023/08/27 01:17:11;;;;;;;9.00;4.40;;;;;;;17.83;100.00;100159.08;105602;1256;69201;-66
2023/08/27 01:19:38;;;;;;;8.00;4.10;;;;;;;17.81;100.00;100153.37;105464;1257;73788;-66
2023/08/27 01:22:05;;;;;;;6.80;4.30;;;;;;;17.80;100.00;100150.98;105534;1256;83898;-65
2023/08/27 01:24:32;;;;;;;7.90;4.50;;;;;;;17.79;100.00;100154.77;105458;1254;72601;-66
2023/08/27 01:27:10;;;;;;;7.30;4.10;;;;;;;17.77;100.00;100158.08;105475;1256;69529;-65
2023/08/27 01:29:45;;;;;;;8.50;4.20;;;;;;;17.74;100.00;100158.83;105505;1266;69190;-65
2023/08/27 01:32:23;;;;;;;5.50;4.10;;;;;;;17.72;100.00;100156.81;105576;1254;74756;-65
2023/08/27 01:34:52;;;;;;;11.10;4.60;;;;;;;17.70;100.00;100154.18;105467;1258;82318;-65
2023/08/27 01:37:19;;;;;;;6.00;4.10;;;;;;;17.69;100.00;100148.43;105595;1256;72529;-65
2023/08/27 01:39:46;;;;;;;6.30;4.00;;;;;;;17.68;100.00;100150.77;105670;1257;69061;-65
2023/08/27 01:42:13;;;;;;;6.10;4.10;;;;;;;17.64;100.00;100148.19;105574;1264;69127;-65
2023/08/27 01:44:40;;;;;;;7.10;3.90;;;;;;;17.62;100.00;100151.90;105613;1256;73890;-65
2023/08/27 01:47:07;;;;;;;7.70;4.20;;;;;;;17.56;100.00;100151.55;105617;1254;82656;-65
2023/08/27 01:49:34;;;;;;;5.70;4.20;;;;;;;17.53;100.00;100153.95;105526;1257;72557;-65
2023/08/27 01:52:01;;;;;;;6.20;3.90;;;;;;;17.51;100.00;100146.48;105583;1257;69198;-65
2023/08/27 01:54:28;;;;;;;6.30;4.40;;;;;;;17.49;100.00;100146.27;105547;1257;69161;-65
2023/08/27 01:56:55;;;;;;;9.20;4.30;;;;;;;17.47;100.00;100148.52;105456;1257;73793;-65
2023/08/27 01:59:22;;;;;;;7.30;4.50;;;;;;;17.45;100.00;100152.52;105574;1256;82295;-65
2023/08/27 02:01:49;;;;;;;6.40;4.00;;;;;;;17.44;100.00;100154.36;105506;1260;72711;-65
2023/08/27 02:04:16;;;;;;;7.30;4.00;;;;;;;17.43;100.00;100157.13;105586;1256;69183;-65
2023/08/27 02:06:44;;;;;;;7.50;4.40;;;;;;;17.40;100.00;100155.16;105581;1255;69192;-65
2023/08/27 02:09:12;;;;;;;6.00;4.00;;;;;;;17.39;100.00;100152.40;105652;1254;73708;-65
2023/08/27 02:11:39;;;;;;;6.80;3.80;;;;;;;17.38;100.00;100151.23;105562;1257;83341;-65
2023/08/27 02:14:06;;;;;;;9.30;4.00;;;;;;;17.39;100.00;100146.41;105547;1257;72676;-65
2023/08/27 02:16:34;;;;;;;7.10;3.80;;;;;;;17.38;100.00;100139.23;105529;1255;69237;-65
2023/08/27 02:19:01;;;;;;;9.40;3.90;;;;;;;17.38;100.00;100136.57;105529;1257;69118;-65
2023/08/27 02:21:29;;;;;;;7.30;4.50;;;;;;;17.37;100.00;100130.26;105631;1257;73835;-65
2023/08/27 02:23:56;;;;;;;4.90;4.10;;;;;;;17.38;100.00;100132.53;105524;1254;82516;-65
2023/08/27 02:26:23;;;;;;;8.80;3.70;;;;;;;17.37;100.00;100129.94;105519;1257;73636;-65
2023/08/27 02:28:50;;;;;;;7.10;4.00;;;;;;;17.37;100.00;100123.96;105556;1257;69163;-65
2023/08/27 02:31:17;;;;;;;8.80;4.10;;;;;;;17.37;100.00;100123.10;105550;1257;69074;-65
2023/08/27 02:33:44;;;;;;;8.20;4.60;;;;;;;17.36;100.00;100125.91;105528;1257;74998;-65
2023/08/27 02:36:11;;;;;;;7.30;4.10;;;;;;;17.35;100.00;100124.12;105618;1256;82513;-65
2023/08/27 02:38:38;;;;;;;5.90;3.50;;;;;;;17.31;100.00;100129.48;105550;1257;71735;-65
2023/08/27 02:41:05;;;;;;;4.60;3.80;;;;;;;17.29;100.00;100129.30;105607;1253;69204;-65
2023/08/27 02:43:32;;;;;;;6.80;4.30;;;;;;;17.29;100.00;100128.04;105552;1255;69248;-65
2023/08/27 02:45:59;;;;;;;5.40;3.90;;;;;;;17.29;100.00;100125.74;105536;1256;74891;-65
2023/08/27 02:48:26;;;;;;;7.60;4.10;;;;;;;17.28;100.00;100126.86;105628;1257;83491;-65
2023/08/27 02:50:53;;;;;;;8.30;3.70;;;;;;;17.26;100.00;100132.30;105690;1257;72282;-65
2023/08/27 02:53:20;;;;;;;4.90;4.00;;;;;;;17.25;100.00;100133.81;105517;1257;69128;-65
2023/08/27 02:55:48;;;;;;;6.00;4.00;;;;;;;17.23;100.00;100125.60;105582;1256;69163;-65
2023/08/27 02:58:15;;;;;;;6.20;4.10;;;;;;;17.22;100.00;100113.88;105568;1254;74207;-65
2023/08/27 03:00:42;;;;;;;8.60;4.00;;;;;;;17.21;100.00;100113.08;105554;1254;82575;-66
2023/08/27 03:03:09;;;;;;;6.30;3.80;;;;;;;17.21;100.00;100120.13;105547;1254;72481;-67
2023/08/27 03:05:39;;;;;;;9.70;4.00;;;;;;;17.22;100.00;100126.42;105627;1257;69205;-64
2023/08/27 03:08:06;;;;;;;6.90;4.00;;;;;;;17.22;100.00;100129.10;105518;1257;69184;-64
2023/08/27 03:10:34;;;;;;;4.80;4.10;;;;;;;17.20;100.00;100128.31;105561;1254;74831;-67
2023/08/27 03:13:01;;;;;;;6.50;3.90;;;;;;;17.20;100.00;100131.17;105508;1256;83446;-66
2023/08/27 03:15:28;;;;;;;8.90;4.00;;;;;;;17.18;100.00;100130.91;105558;1251;73626;-64
2023/08/27 03:17:55;;;;;;;5.60;4.20;;;;;;;17.18;100.00;100138.69;105494;1266;69208;-65
2023/08/27 03:20:22;;;;;;;6.90;4.20;;;;;;;17.17;100.00;100148.99;105507;1257;69118;-65
2023/08/27 03:22:49;;;;;;;6.20;3.90;;;;;;;17.14;100.00;100142.81;105613;1254;74689;-64
2023/08/27 03:25:16;;;;;;;6.50;3.60;;;;;;;17.14;100.00;100144.42;105584;1256;83342;-65
2023/08/27 03:27:43;;;;;;;6.00;3.50;;;;;;;17.15;100.00;100139.26;105586;1254;72666;-64
2023/08/27 03:30:11;;;;;;;5.20;3.90;;;;;;;17.14;100.00;100132.21;105626;1254;69407;-65
2023/08/27 03:32:38;;;;;;;7.10;4.00;;;;;;;17.15;100.00;100127.94;105607;1257;69186;-64
2023/08/27 03:35:05;;;;;;;8.30;3.90;;;;;;;17.16;100.00;100119.38;105675;1257;73869;-66
2023/08/27 03:37:32;;;;;;;7.70;4.10;;;;;;;17.16;100.00;100111.58;105500;1257;82185;-64
2023/08/27 03:40:00;;;;;;;7.50;3.90;;;;;;;17.15;100.00;100116.60;105496;1257;72641;-64
2023/08/27 03:42:27;;;;;;;6.40;3.80;;;;;;;17.13;100.00;100121.02;105469;1255;69231;-64
2023/08/27 03:44:56;;;;;;;7.10;4.10;;;;;;;17.08;100.00;100113.58;105581;1254;69176;-64
2023/08/27 03:47:23;;;;;;;5.30;3.60;;;;;;;17.04;100.00;100114.05;105513;1257;74147;-64
2023/08/27 03:49:51;;;;;;;6.50;3.60;;;;;;;17.00;100.00;100115.39;105548;1257;83422;-64
2023/08/27 03:52:18;;;;;;;6.00;3.10;;;;;;;16.95;100.00;100101.77;105414;1255;73765;-64
2023/08/27 03:54:46;;;;;;;5.20;4.10;;;;;;;16.92;100.00;100101.98;105524;1254;69523;-64
2023/08/27 03:57:13;;;;;;;5.80;3.90;;;;;;;16.87;100.00;100104.45;105476;1255;69111;-64
2023/08/27 03:59:40;;;;;;;5.50;3.90;;;;;;;16.84;100.00;100093.68;105470;1257;73704;-64
2023/08/27 04:02:08;;;;;;;5.70;3.70;;;;;;;16.84;100.00;100086.29;105524;1257;82536;-64
2023/08/27 04:04:36;;;;;;;6.40;4.10;;;;;;;16.86;100.00;100088.60;105614;1256;73382;-64
2023/08/27 04:07:04;;;;;;;7.00;3.70;;;;;;;16.86;100.00;100083.18;105429;1254;69314;-64
2023/08/27 04:09:31;;;;;;;8.00;4.00;;;;;;;16.85;100.00;100085.00;105574;1257;69167;-64
2023/08/27 04:11:58;;;;;;;5.70;3.80;;;;;;;16.86;100.00;100089.69;105592;1255;74817;-63
2023/08/27 04:14:25;;;;;;;4.90;3.70;;;;;;;16.88;100.00;100098.52;105462;1256;83316;-63
2023/08/27 04:16:52;;;;;;;6.20;3.70;;;;;;;16.91;100.00;100095.13;105439;1257;73932;-64
2023/08/27 04:19:18;;;;;;;6.20;3.40;;;;;;;16.95;100.00;100095.42;105793;1252;69268;-64
2023/08/27 04:21:45;;;;;;;5.60;4.00;;;;;;;16.99;100.00;100092.73;105480;1254;69045;-63
2023/08/27 04:24:12;;;;;;;4.30;3.10;;;;;;;17.02;100.00;100087.02;105460;1254;74829;-63
2023/08/27 04:26:43;;;;;;;6.20;3.70;;;;;;;17.06;100.00;100086.34;105487;1257;83579;-64
2023/08/27 04:29:10;;;;;;;3.60;2.90;;;;;;;17.08;100.00;100082.52;105409;1257;73944;-64
2023/08/27 04:31:37;;;;;;;5.10;3.60;;;;;;;17.09;100.00;100077.30;105456;1257;69259;-63
2023/08/27 04:34:04;;;;;;;5.90;3.40;;;;;;;17.10;100.00;100078.88;105439;1257;69177;-63
2023/08/27 04:36:31;;;;;;;6.90;3.40;;;;;;;17.08;100.00;100083.23;105489;1255;74839;-64
2023/08/27 04:38:58;;;;;;;8.50;3.30;;;;;;;17.07;100.00;100078.36;105468;1258;83599;-63
2023/08/27 04:41:25;;;;;;;7.00;3.50;;;;;;;17.06;100.00;100078.27;105490;1254;72599;-62
2023/08/27 04:43:52;;;;;;;5.20;3.60;;;;;;;17.03;100.00;100081.11;105448;1254;69177;-63
2023/08/27 04:46:19;;;;;;;5.40;4.10;;;;;;;17.01;100.00;100083.00;105533;1256;69132;-63
2023/08/27 04:48:46;;;;;;;5.10;3.50;;;;;;;16.98;100.00;100078.42;105598;1258;75039;-63
2023/08/27 04:51:14;;;;;;;11.10;4.30;;;;;;;16.99;100.00;100082.45;105530;1257;83555;-63
2023/08/27 04:53:41;;;;;;;4.30;3.60;;;;;;;17.00;100.00;100083.27;105544;1256;72554;-63
2023/08/27 04:56:08;;;;;;;6.40;3.90;;;;;;;17.01;100.00;100080.20;105652;1255;69220;-63
2023/08/27 04:58:35;;;;;;;5.30;3.70;;;;;;;17.04;100.00;100079.95;105475;1257;70423;-64
2023/08/27 05:01:02;;;;;;;6.50;3.90;;;;;;;17.09;100.00;100078.04;105401;1254;75276;-64
2023/08/27 05:03:29;;;;;;;5.60;3.60;;;;;;;17.13;100.00;100081.29;105539;1256;83650;-64
2023/08/27 05:05:57;;;;;;;5.40;3.80;;;;;;;17.19;100.00;100086.89;105759;1257;72556;-64
2023/08/27 05:08:24;;;;;;;5.70;3.90;;;;;;;17.24;100.00;100089.35;105555;1254;69156;-63
2023/08/27 05:10:51;;;;;;;5.10;3.70;;;;;;;17.30;100.00;100087.88;105625;1255;69138;-63
2023/08/27 05:13:19;;;;;;;4.80;3.40;;;;;;;17.36;100.00;100096.68;105543;1254;73861;-63
2023/08/27 05:15:46;;;;;;;7.50;3.50;;;;;;;17.40;100.00;100098.63;105560;1255;82282;-63
2023/08/27 05:18:13;;;;;;;6.40;4.00;;;;;;;17.43;100.00;100101.27;105773;1256;73604;-63
2023/08/27 05:20:41;;;;;;;4.50;4.00;;;;;;;17.46;100.00;100099.46;105791;1257;69055;-63
2023/08/27 05:23:08;;;;;;;5.30;3.50;;;;;;;17.51;100.00;100106.34;105578;1256;69159;-63
2023/08/27 05:25:35;;;;;;;7.70;3.40;;;;;;;17.58;100.00;100112.92;105557;1257;75052;-63
2023/08/27 05:28:03;;;;;;;11.40;4.10;;;;;;;17.66;100.00;100121.09;105565;1257;83293;-63
2023/08/27 05:30:30;;;;;;;11.10;4.10;;;;;;;17.72;100.00;100122.39;105902;1254;73749;-63
2023/08/27 05:32:58;;;;;;;5.70;3.40;;;;;;;17.77;100.00;100112.48;105818;1256;69190;-66
2023/08/27 05:35:26;;;;;;;7.60;3.60;;;;;;;17.84;100.00;100098.75;105656;1256;69233;-67
2023/08/27 05:37:53;;;;;;;6.20;3.30;;;;;;;17.89;100.00;100085.63;105560;1254;74800;-64
2023/08/27 05:40:20;;;;;;;5.30;3.10;;;;;;;17.92;100.00;100083.11;105590;1254;82856;-64
2023/08/27 05:42:47;;;;;;;7.20;3.70;;;;;;;17.96;100.00;100085.85;105597;1257;73840;-60
2023/08/27 05:45:14;;;;;;;5.30;3.20;;;;;;;18.00;100.00;100087.84;105581;1254;69358;-61
2023/08/27 05:47:40;;;;;;;5.00;3.20;;;;;;;18.03;100.00;100085.34;105593;1254;69256;-63
2023/08/27 05:50:08;;;;;;;5.10;3.10;;;;;;;18.07;100.00;100084.02;105592;1257;75015;-62
2023/08/27 05:52:35;;;;;;;4.80;3.20;;;;;;;18.08;100.00;100078.77;105905;1257;83241;-63
2023/08/27 05:55:02;;;;;;;5.70;3.40;;;;;;;18.10;100.00;100076.01;105620;1257;73680;-61
2023/08/27 05:57:30;;;;;;;5.80;3.50;;;;;;;18.12;100.00;100074.27;105676;1253;69171;-62
2023/08/27 05:59:57;;;;;;;7.70;3.40;;;;;;;18.14;100.00;100077.29;105897;1256;69281;-62
2023/08/27 06:02:24;;;;;;;4.90;3.50;;;;;;;18.17;100.00;100078.09;105702;1254;74783;-63
2023/08/27 06:04:52;;;;;;;5.70;3.30;;;;;;;18.20;100.00;100071.20;105626;1257;83480;-62
2023/08/27 06:07:19;;;;;;;4.40;3.20;;;;;;;18.21;100.00;100066.49;105619;1254;73282;-63
2023/08/27 06:09:46;;;;;;;6.90;3.70;;;;;;;18.22;100.00;100062.36;105642;1254;69165;-63
2023/08/27 06:12:13;;;;;;;5.10;3.20;;;;;;;18.24;100.00;100064.01;105732;1256;69246;-63
2023/08/27 06:14:40;;;;;;;5.30;3.20;;;;;;;18.26;100.00;100062.21;105538;1255;74862;-63
2023/08/27 06:17:07;;;;;;;6.50;3.50;;;;;;;18.32;100.00;100054.05;105593;1253;82524;-63
2023/08/27 06:19:34;;;;;;;4.30;3.30;;;;;;;18.38;100.00;100047.06;105538;1254;72618;-63
2023/08/27 06:22:15;;;;;;;5.40;2.80;;;;;;;18.46;100.00;100040.58;105545;1257;69192;-63
2023/08/27 06:24:43;;;;;;;7.00;3.00;;;;;;;18.52;100.00;100032.89;105771;1254;69223;-63
2023/08/27 06:27:10;;;;;;;5.40;2.90;;;;;;;18.55;100.00;100029.50;105717;1256;74728;-63
2023/08/27 06:29:37;;;;;;;3.30;3.00;;;;;;;18.59;100.00;100028.85;105620;1256;82395;-61
2023/08/27 06:32:04;;;;;;;6.00;3.10;;;;;;;18.59;100.00;100025.96;105766;1257;73588;-63
2023/08/27 06:34:34;;;;;;;4.00;3.30;;;;;;;18.59;100.00;100018.55;105660;1259;69131;-63
2023/08/27 06:37:01;;;;;;;5.00;3.40;;;;;;;18.59;100.00;100007.55;105825;1254;69649;-60
2023/08/27 06:39:28;;;;;;;4.30;3.20;;;;;;;18.60;100.00;100005.91;105552;1256;73814;-62
2023/08/27 06:41:55;;;;;;;4.90;2.90;;;;;;;18.60;100.00;100004.30;105764;1256;83301;-62
2023/08/27 06:44:25;;;;;;;6.40;3.30;;;;;;;18.57;100.00;100008.46;105708;1257;73708;-65
2023/08/27 06:46:55;;;;;;;3.80;3.40;;;;;;;18.57;100.00;100005.95;105619;1256;69211;-65
2023/08/27 06:49:23;;;;;;;8.20;3.40;;;;;;;18.58;100.00;99997.78;105572;1253;69212;-67
2023/08/27 06:51:50;;;;;;;4.30;3.30;;;;;;;18.60;100.00;99997.45;105528;1254;74031;-67
2023/08/27 06:54:18;;;;;;;4.30;3.40;;;;;;;18.66;100.00;100003.35;105731;1254;82140;-67
2023/08/27 06:56:45;;;;;;;3.80;3.20;;;;;;;18.77;100.00;100007.32;105828;1257;73717;-66
2023/08/27 06:59:12;;;;;;;5.20;3.10;;;;;;;18.88;100.00;99993.66;105614;1254;69300;-65
2023/08/27 07:01:40;;;;;;;4.70;3.30;;;;;;;18.98;100.00;99987.58;105569;1255;69277;-66
2023/08/27 07:04:07;;;;;;;5.70;3.20;;;;;;;19.08;100.00;99979.13;105565;1254;75007;-65
2023/08/27 07:06:34;;;;;;;8.20;3.10;;;;;;;19.18;100.00;99974.88;105665;1257;84443;-65
2023/08/27 07:09:04;;;;;;;5.50;2.70;;;;;;;19.29;100.00;99976.48;105894;1253;72733;-64
2023/08/27 07:11:33;;;;;;;4.20;2.90;;;;;;;19.39;100.00;99990.01;105796;1255;69205;-64
2023/08/27 07:14:00;;;;;;;3.00;2.70;;;;;;;19.51;100.00;99994.91;108134;1254;69118;-65
2023/08/27 07:16:27;;;;;;;5.20;3.10;;;;;;;19.63;99.90;99993.41;105722;1257;75324;-64
2023/08/27 07:18:54;;;;;;;4.00;2.80;;;;;;;19.74;99.73;99992.52;105540;1256;82548;-64
2023/08/27 07:21:21;;;;;;;6.20;2.70;;;;;;;19.86;99.33;99996.35;105589;1254;73431;-64
2023/08/27 07:23:48;;;;;;;8.30;3.30;;;;;;;19.98;98.99;100003.63;105606;1257;69122;-64
2023/08/27 07:26:15;;;;;;;5.50;2.90;;;;;;;20.11;98.55;100007.34;105574;1255;69179;-64
2023/08/27 07:28:41;;;;;;;4.60;2.50;;;;;;;20.25;98.19;100009.95;105576;1254;74908;-64
2023/08/27 07:31:08;;;;;;;5.40;2.80;;;;;;;20.36;97.28;100008.66;105635;1258;82402;-64
2023/08/27 07:33:36;;;;;;;4.90;2.40;;;;;;;20.46;96.38;100009.60;105717;1258;73640;-65
2023/08/27 07:36:03;;;;;;;3.80;2.30;;;;;;;20.54;95.94;100001.48;105514;1254;69183;-65
2023/08/27 07:38:30;;;;;;;5.20;2.30;;;;;;;20.63;95.24;99992.58;105787;1257;69272;-64
2023/08/27 07:40:57;;;;;;;4.60;2.50;;;;;;;20.71;95.08;99995.09;105613;1254;75054;-65
2023/08/27 07:43:24;;;;;;;3.90;2.60;;;;;;;20.81;94.88;100006.63;105883;1257;83180;-65
2023/08/27 07:45:51;;;;;;;4.50;2.50;;;;;;;20.87;94.05;100009.70;105640;1253;73659;-64
2023/08/27 07:48:19;;;;;;;4.60;2.70;;;;;;;20.88;93.44;100013.98;105685;1254;69078;-64
2023/08/27 07:50:47;;;;;;;4.10;2.50;;;;;;;21.00;93.74;100016.88;105745;1254;69054;-63
2023/08/27 07:53:14;;;;;;;5.40;2.50;;;;;;;21.11;92.91;100013.44;105639;1256;74634;-63
2023/08/27 07:55:41;;;;;;;6.60;2.90;;;;;;;21.13;91.97;100007.61;105605;1254;83259;-62
2023/08/27 07:58:08;;;;;;;4.10;2.40;;;;;;;21.13;91.92;100004.59;105546;1254;289606;-63
2023/08/27 08:00:35;;;;;;;5.20;2.90;;;;;;;21.21;92.04;100006.19;105716;1254;69087;-63
2023/08/27 08:03:03;;;;;;;3.50;2.80;;;;;;;21.32;92.30;100006.23;105472;1257;69170;-63
2023/08/27 08:05:30;;;;;;;4.70;2.90;;;;;;;21.47;91.88;100010.00;105880;1254;75001;-63
2023/08/27 08:07:57;;;;;;;4.10;2.90;;;;;;;21.52;91.11;100013.73;105576;1253;83762;-63
2023/08/27 08:10:25;;;;;;;3.20;2.90;;;;;;;21.52;90.36;100021.46;105603;1255;73934;-63
2023/08/27 08:12:52;;;;;;;4.50;3.00;;;;;;;21.46;89.56;100027.26;105555;1252;69145;-64
2023/08/27 08:15:20;;;;;;;5.80;2.90;;;;;;;21.41;89.10;100034.48;105513;1257;69208;-63
2023/08/27 08:17:47;;;;;;;3.70;2.70;;;;;;;21.43;88.84;100034.87;105635;1254;74925;-63
2023/08/27 08:20:14;;;;;;;5.80;3.50;;;;;;;21.48;88.96;100034.61;105549;1256;82329;-63
2023/08/27 08:22:41;;;;;;;3.90;2.80;;;;;;;21.50;88.70;100024.82;105643;1254;73731;-63
2023/08/27 08:25:08;;;;;;;4.60;3.30;;;;;;;21.46;87.94;100022.66;105646;1253;69122;-63
2023/08/27 08:27:35;;;;;;;6.40;3.40;;;;;;;21.44;87.76;100021.14;105636;1257;69198;-61
2023/08/27 08:30:04;;;;;;;4.90;2.80;;;;;;;21.43;87.57;100011.79;105670;1254;74517;-63
2023/08/27 08:32:31;;;;;;;7.50;3.00;;;;;;;21.39;87.54;100011.38;105702;1254;83565;-63
2023/08/27 08:34:58;;;;;;;3.90;2.70;;;;;;;21.40;87.61;100009.67;105567;1254;73722;-63
2023/08/27 08:37:26;;;;;;;5.30;3.20;;;;;;;21.46;87.78;100014.31;105590;1255;69225;-63
2023/08/27 08:39:53;;;;;;;6.10;2.90;;;;;;;21.50;87.79;100023.02;105615;1254;69319;-63
2023/08/27 08:42:20;;;;;;;4.20;2.80;;;;;;;21.53;87.52;100025.96;105669;1253;74804;-63
2023/08/27 08:45:35;;;;;;;4.20;3.00;;;;;;;21.59;87.17;100025.22;105601;1254;82576;-63
2023/08/27 08:48:05;;;;;;;4.00;2.70;;;;;;;21.59;86.29;100030.08;105191;1257;72574;-63
2023/08/27 08:50:35;;;;;;;3.30;3.00;;;;;;;21.57;86.58;100034.34;105249;1256;69307;-63
2023/08/27 08:53:15;;;;;;;3.50;3.00;;;;;;;21.55;86.52;100036.96;105422;1254;69397;-63
2023/08/27 08:55:45;;;;;;;5.60;2.90;;;;;;;21.50;86.29;100042.42;105552;1254;73884;-63
2023/08/27 08:58:13;;;;;;;5.00;2.60;;;;;;;21.47;86.17;100049.30;105626;1254;83675;-63
2023/08/27 09:00:40;;;;;;;3.90;2.70;;;;;;;21.42;86.09;100042.05;105567;1256;73950;-63
2023/08/27 09:03:07;;;;;;;4.70;3.10;;;;;;;21.42;86.04;100034.70;105569;1256;69184;-63
2023/08/27 09:05:35;;;;;;;4.50;2.60;;;;;;;21.46;86.18;100037.59;105651;1253;69201;-63
2023/08/27 09:08:04;;;;;;;5.00;2.90;;;;;;;21.48;86.17;100038.71;105611;1255;74726;-62
2023/08/27 09:10:31;;;;;;;6.10;2.90;;;;;;;21.44;85.88;100043.46;105658;1254;82844;-62
2023/08/27 09:12:58;;;;;;;4.80;3.20;;;;;;;21.36;85.42;100044.63;105534;1254;71682;-63
2023/08/27 09:15:25;;;;;;;4.30;3.10;;;;;;;21.26;85.25;100037.23;105542;1254;69125;-62
2023/08/27 09:17:52;;;;;;;5.20;3.10;;;;;;;21.21;85.37;100031.09;105612;1254;69739;-61
2023/08/27 09:20:19;;;;;;;4.40;3.40;;;;;;;21.17;85.69;100027.33;105637;1255;74845;-62
2023/08/27 09:22:46;;;;;;;5.10;3.10;;;;;;;21.12;86.02;100022.95;105603;1254;82425;-62
2023/08/27 09:25:13;;;;;;;5.10;3.40;;;;;;;21.09;85.79;100026.46;105596;1256;73583;-61
2023/08/27 09:27:41;;;;;;;4.30;3.20;;;;;;;21.05;86.00;100022.50;105549;1256;69108;-61
2023/08/27 09:30:09;;;;;;;4.20;3.10;;;;;;;21.01;86.51;100022.83;105538;1256;69198;-61
2023/08/27 09:32:35;;;;;;;5.40;3.00;;;;;;;20.99;86.49;100017.67;105573;1254;74816;-61
2023/08/27 09:35:04;;;;;;;5.90;3.50;;;;;;;20.95;86.60;100015.16;105515;1256;83342;-62
2023/08/27 09:37:39;;;;;;;6.60;3.00;;;;;;;20.89;86.59;100012.72;105553;1253;72748;-61
2023/08/27 09:40:08;;;;;;;4.80;2.80;;;;;;;20.81;86.77;100011.05;105502;1256;69285;-62
2023/08/27 09:42:35;;;;;;;6.80;3.60;;;;;;;20.76;86.99;100014.02;105648;1255;69103;-61
2023/08/27 09:45:02;;;;;;;5.60;3.20;;;;;;;20.70;87.27;100024.77;105619;1256;73721;-61
2023/08/27 09:47:30;;;;;;;5.40;3.50;;;;;;;20.67;87.22;100016.69;105537;1256;83527;-61
2023/08/27 09:49:59;;;;;;;4.50;2.90;;;;;;;20.64;87.68;100013.38;105621;1254;72456;-61
2023/08/27 09:52:26;;;;;;;4.00;3.20;;;;;;;20.60;87.71;100010.95;105597;1257;69198;-61
2023/08/27 09:54:53;;;;;;;7.10;3.50;;;;;;;20.54;87.73;100010.02;105534;1254;69126;-62
2023/08/27 09:57:23;;;;;;;;;;;;;;;20.49;88.08;100005.73;105646;1254;74914;-61
2023/08/27 09:59:50;;;;;;;6.80;3.30;;;;;;;20.50;88.68;99999.67;105436;1253;82486;-61
2023/08/27 10:02:17;;;;;;;5.50;3.80;;;;;;;20.55;89.19;100003.73;106799;1253;72563;-61
2023/08/27 10:04:55;;;;;;;5.70;3.50;;;;;;;20.60;88.85;100007.02;105593;1253;69230;-63
2023/08/27 10:07:23;;;;;;;6.60;3.30;;;;;;;20.61;88.83;99998.25;105616;1253;69202;-63
2023/08/27 10:09:51;;;;;;;5.70;3.70;;;;;;;20.62;88.97;99992.59;105660;1253;74968;-62
2023/08/27 10:12:19;;;;;;;5.90;3.80;;;;;;;20.67;89.08;99986.02;105511;1254;83239;-63
2023/08/27 10:14:47;;;;;;;5.60;3.40;;;;;;;20.75;89.22;99982.53;105526;1256;73549;-64
2023/08/27 10:17:15;;;;;;;7.40;4.20;;;;;;;20.80;89.08;99981.85;105623;1253;69150;-63
2023/08/27 10:19:43;;;;;;;5.70;3.80;;;;;;;20.84;88.71;99973.02;105578;1254;69189;-62
2023/08/27 10:22:10;;;;;;;9.40;4.10;;;;;;;20.87;88.84;99973.95;105636;1254;74721;-61
2023/08/27 10:24:38;;;;;;;5.80;4.10;;;;;;;20.92;88.95;99976.55;105660;1257;83658;-61
2023/08/27 10:27:05;;;;;;;5.50;3.50;;;;;;;20.95;88.78;99976.99;105638;1254;72502;-61
2023/08/27 10:29:33;;;;;;;8.00;3.80;;;;;;;20.95;88.17;99985.40;105554;1255;69457;-61
2023/08/27 10:32:02;;;;;;;4.30;3.30;;;;;;;20.95;88.37;99995.64;105648;1252;69109;-61
2023/08/27 10:34:30;;;;;;;5.40;3.80;;;;;;;21.00;88.31;99994.20;105638;1254;74870;-60
2023/08/27 10:37:02;;;;;;;4.90;3.70;;;;;;;21.02;88.41;99990.29;105655;1256;83418;-61
2023/08/27 10:39:30;;;;;;;4.50;3.70;;;;;;;21.04;88.18;99993.84;105522;1254;74035;-60
2023/08/27 10:41:57;;;;;;;4.80;4.10;;;;;;;21.04;87.90;99995.21;105622;1255;69736;-60
2023/08/27 10:44:24;;;;;;;6.10;3.90;;;;;;;21.03;87.61;99995.89;105614;1256;69464;-61
2023/08/27 10:47:08;;;;;;;5.90;3.80;;;;;;;21.05;87.80;99987.48;105602;1254;74748;-61
2023/08/27 10:49:37;;;;;;;6.50;4.40;;;;;;;21.10;87.65;99983.14;105614;1255;83514;-61
2023/08/27 10:52:17;;;;;;;6.10;4.10;;;;;;;21.13;87.72;99976.64;105642;1254;72572;-60
2023/08/27 10:54:46;;;;;;;5.60;4.00;;;;;;;21.15;87.62;99972.21;105586;1254;69202;-61
2023/08/27 10:57:22;;;;;;;6.80;3.90;;;;;;;21.21;87.57;99967.80;105636;1254;69066;-60
2023/08/27 10:59:53;;;;;;;5.00;3.50;;;;;;;21.34;87.54;99967.89;105619;1255;74006;-60
2023/08/27 11:02:20;;;;;;;5.70;3.80;;;;;;;21.50;88.07;99970.91;105584;1254;82318;-60
2023/08/27 11:04:53;;;;;;;5.60;4.30;;;;;;;21.58;87.70;99975.70;105574;1253;73908;-61
2023/08/27 11:07:22;;;;;;;7.60;4.10;;;;;;;21.56;86.96;99974.00;105561;1256;69192;-61
2023/08/27 11:09:56;;;;;;;7.70;4.40;;;;;;;21.51;86.92;99971.05;105626;1252;69191;-61
2023/08/27 11:12:32;;;;;;;5.40;4.10;;;;;;;21.57;87.39;99971.39;105606;1252;74803;-61
2023/08/27 11:15:15;;;;;;;8.70;4.50;;;;;;;21.65;87.37;99971.41;105606;1256;83419;-60
2023/08/27 11:17:42;;;;;;;5.60;4.30;;;;;;;21.68;86.82;99968.78;105627;1252;72553;-60